Time;durP1;ratioP1;P1;durP2;ratioP2;P2;SDS_P1;SDS_P2;PMS_P1;PMS_P2;Temp;Humidity;BMP_temperature;BMP_pressure;BME280_temperature;BME280_humidity;BME280_pressure;Samples;Min_cycle;Max_cycle;Signal;HPM_P1;HPM_P2
2021/04/02 00:00:41;;;;;;;27.10;19.05;;;;;;;15.50;50.94;98081.53;5087742;28;20457;-77
2021/04/02 00:03:14;;;;;;;27.48;19.35;;;;;;;15.46;50.79;98079.16;5085772;28;20244;-78
2021/04/02 00:05:40;;;;;;;27.85;19.27;;;;;;;15.41;50.99;98079.44;5084822;27;20236;-77
2021/04/02 00:08:07;;;;;;;30.33;20.77;;;;;;;15.34;50.80;98081.56;5087916;28;20244;-77
2021/04/02 00:10:37;;;;;;;29.42;19.10;;;;;;;15.23;51.08;98076.13;5086272;28;20240;-77
2021/04/02 00:13:04;;;;;;;27.92;19.10;;;;;;;15.09;51.58;98069.06;5089462;28;20244;-77
2021/04/02 00:15:30;;;;;;;30.38;19.73;;;;;;;15.03;51.65;98077.28;5085854;28;20228;-77
2021/04/02 00:17:56;;;;;;;30.23;19.65;;;;;;;14.97;51.44;98080.25;5084388;28;20233;-77
2021/04/02 00:20:22;;;;;;;31.83;18.65;;;;;;;14.90;51.87;98077.13;5086855;28;20849;-77
2021/04/02 00:22:48;;;;;;;27.88;18.13;;;;;;;14.83;52.04;98081.03;5084517;28;20205;-77
2021/04/02 00:25:15;;;;;;;27.20;19.20;;;;;;;14.76;52.05;98075.31;5084158;28;20205;-77
2021/04/02 00:27:42;;;;;;;29.40;18.83;;;;;;;14.70;52.09;98075.63;5089283;28;20236;-74
2021/04/02 00:30:15;;;;;;;29.02;17.83;;;;;;;14.67;52.33;98078.47;5089482;28;20213;-77
2021/04/02 00:32:41;;;;;;;26.15;18.05;;;;;;;14.67;52.32;98075.84;5086016;28;20290;-77
2021/04/02 00:35:09;;;;;;;27.65;17.90;;;;;;;14.67;52.34;98074.97;5086940;28;20209;-77
2021/04/02 00:37:35;;;;;;;24.90;17.50;;;;;;;14.61;52.38;98077.03;5084700;28;20225;-77
2021/04/02 00:40:01;;;;;;;22.95;17.10;;;;;;;14.61;52.42;98070.91;5086113;28;20219;-77
2021/04/02 00:42:28;;;;;;;26.08;17.95;;;;;;;14.64;52.40;98065.50;5086941;28;20251;-77
2021/04/02 00:44:54;;;;;;;26.02;18.10;;;;;;;14.59;52.36;98067.53;5084811;28;20679;-77
2021/04/02 00:47:20;;;;;;;23.50;16.58;;;;;;;14.53;52.54;98062.59;5087187;28;20301;-77
2021/04/02 00:49:46;;;;;;;25.92;17.05;;;;;;;14.54;52.43;98070.41;5088066;28;20217;-77
2021/04/02 00:52:12;;;;;;;24.80;17.30;;;;;;;14.55;52.71;98060.72;5085463;28;20305;-77
2021/04/02 00:54:38;;;;;;;24.92;17.35;;;;;;;14.54;52.38;98070.41;5085764;28;20213;-77
2021/04/02 00:57:05;;;;;;;27.00;17.90;;;;;;;14.54;52.55;98072.16;5087269;28;20255;-77
2021/04/02 00:59:31;;;;;;;23.23;16.48;;;;;;;14.54;52.56;98064.28;5087250;28;20200;-77
2021/04/02 01:01:57;;;;;;;23.80;16.83;;;;;;;14.48;52.58;98073.34;5084267;28;20229;-77
2021/04/02 01:04:24;;;;;;;23.73;16.40;;;;;;;14.36;52.75;98060.94;5086330;28;20261;-77
2021/04/02 01:06:50;;;;;;;27.90;17.67;;;;;;;14.27;52.97;98067.50;5083542;28;20237;-77
2021/04/02 01:09:16;;;;;;;27.27;16.73;;;;;;;14.27;53.02;98057.03;5087571;28;20212;-77
2021/04/02 01:11:42;;;;;;;25.50;17.20;;;;;;;14.27;52.95;98065.72;5084667;28;20243;-76
2021/04/02 01:14:08;;;;;;;26.55;17.05;;;;;;;14.29;52.86;98060.41;5086969;28;20236;-77
2021/04/02 01:16:36;;;;;;;23.85;16.30;;;;;;;14.37;52.87;98067.84;5083389;28;20233;-77
2021/04/02 01:19:07;;;;;;;22.33;16.65;;;;;;;14.42;53.05;98077.16;5088787;28;20242;-78
2021/04/02 01:21:38;;;;;;;25.83;16.85;;;;;;;14.47;52.99;98074.28;5087245;28;20235;-77
2021/04/02 01:24:35;;;;;;;27.63;17.08;;;;;;;14.45;52.87;98071.75;5083487;28;20204;-77
2021/04/02 01:27:14;;;;;;;22.52;16.38;;;;;;;14.35;53.02;98078.41;5028091;28;20238;-77
2021/04/02 01:29:45;;;;;;;24.17;16.85;;;;;;;14.26;53.09;98081.56;5082681;28;20261;-76
2021/04/02 01:32:13;;;;;;;28.83;17.23;;;;;;;14.24;53.29;98084.28;5086432;28;20873;-77
2021/04/02 01:34:42;;;;;;;24.45;16.20;;;;;;;14.19;53.41;98090.69;5085064;28;21101;-77
2021/04/02 01:37:11;;;;;;;29.15;18.60;;;;;;;14.23;53.32;98087.00;5085566;28;20317;-77
2021/04/02 01:39:40;;;;;;;24.92;17.63;;;;;;;14.28;53.54;98092.84;5085821;28;20208;-77
2021/04/02 01:42:07;;;;;;;25.65;16.98;;;;;;;14.26;53.36;98094.66;5085164;28;20236;-77
2021/04/02 01:44:36;;;;;;;24.38;16.98;;;;;;;14.23;53.57;98087.00;5083553;28;20212;-79
2021/04/02 01:47:05;;;;;;;23.50;16.63;;;;;;;14.22;53.37;98090.53;5084851;28;20267;-77
2021/04/02 01:49:32;;;;;;;23.92;16.63;;;;;;;14.20;53.50;98092.38;5084750;28;20706;-77
2021/04/02 01:51:59;;;;;;;21.08;14.50;;;;;;;14.17;53.70;98089.91;5083605;28;20229;-77
2021/04/02 01:54:25;;;;;;;19.40;14.05;;;;;;;14.13;52.94;98097.09;5085055;28;21134;-77
2021/04/02 01:56:53;;;;;;;17.70;13.20;;;;;;;14.05;52.91;98100.16;5082836;28;20251;-77
2021/04/02 01:59:21;;;;;;;21.52;13.52;;;;;;;13.97;53.11;98102.34;5087834;28;20216;-77
2021/04/02 02:01:49;;;;;;;17.67;11.60;;;;;;;13.98;52.28;98093.53;5085256;28;20235;-77
2021/04/02 02:04:17;;;;;;;15.52;10.45;;;;;;;13.97;52.32;98104.97;5085694;28;20219;-77
2021/04/02 02:06:44;;;;;;;15.48;9.70;;;;;;;13.90;51.79;98100.97;5086124;28;20777;-78
2021/04/02 02:09:12;;;;;;;12.10;9.38;;;;;;;13.88;51.13;98111.53;5085227;28;20224;-77
2021/04/02 02:11:40;;;;;;;11.70;8.68;;;;;;;13.84;50.69;98109.16;5084380;28;20797;-77
2021/04/02 02:14:09;;;;;;;12.30;8.57;;;;;;;13.74;50.76;98110.56;5088044;28;20228;-77
2021/04/02 02:16:36;;;;;;;9.10;7.75;;;;;;;13.69;50.28;98114.28;5085134;28;20635;-77
2021/04/02 02:19:08;;;;;;;9.80;7.93;;;;;;;13.63;50.24;98114.59;5082002;28;20296;-77
2021/04/02 02:21:35;;;;;;;9.23;7.68;;;;;;;13.61;50.05;98120.84;5085353;28;20637;-77
2021/04/02 02:24:01;;;;;;;10.93;8.15;;;;;;;13.61;49.55;98121.69;5087812;28;20211;-77
2021/04/02 02:26:27;;;;;;;8.93;7.43;;;;;;;13.61;49.42;98119.06;5085257;28;20255;-77
2021/04/02 02:28:53;;;;;;;10.80;7.68;;;;;;;13.60;49.23;98119.13;5088068;28;20237;-77
2021/04/02 02:31:19;;;;;;;11.73;7.68;;;;;;;13.54;49.11;98115.06;5089211;28;20239;-77
2021/04/02 02:33:45;;;;;;;9.18;7.22;;;;;;;13.52;49.42;98121.31;5086796;28;20236;-77
2021/04/02 02:36:11;;;;;;;9.60;7.22;;;;;;;13.49;49.21;98123.16;5090123;28;20317;-77
2021/04/02 02:38:41;;;;;;;9.45;6.63;;;;;;;13.48;49.00;98123.25;5090093;28;20237;-77
2021/04/02 02:41:09;;;;;;;8.25;6.30;;;;;;;13.48;49.28;98121.47;5091322;28;20240;-77
2021/04/02 02:43:35;;;;;;;9.70;7.05;;;;;;;13.45;48.94;98115.53;5090299;28;20208;-77
2021/04/02 02:46:01;;;;;;;10.75;7.75;;;;;;;13.38;48.78;98122.00;5089454;28;20232;-76
2021/04/02 02:48:27;;;;;;;10.60;7.85;;;;;;;13.29;48.84;98125.91;5087491;28;20236;-77
2021/04/02 02:50:55;;;;;;;8.35;7.18;;;;;;;13.23;49.18;98119.22;5085948;28;20335;-77
2021/04/02 02:53:25;;;;;;;7.97;6.60;;;;;;;13.22;48.84;98120.13;5088969;28;20237;-77
2021/04/02 02:55:53;;;;;;;11.38;7.38;;;;;;;13.21;48.99;98118.41;5090145;27;20224;-77
2021/04/02 02:58:22;;;;;;;9.52;7.43;;;;;;;13.19;48.60;98125.50;5090672;28;20228;-77
2021/04/02 03:00:50;;;;;;;8.63;6.65;;;;;;;13.15;49.02;98123.97;5086900;28;20228;-77
2021/04/02 03:03:18;;;;;;;9.60;7.05;;;;;;;13.07;48.82;98120.91;5089202;28;20591;-77
2021/04/02 03:05:47;;;;;;;7.78;6.75;;;;;;;12.98;48.88;98119.56;5090649;28;20239;-79
2021/04/02 03:08:15;;;;;;;7.97;6.88;;;;;;;12.92;48.57;98120.72;5091124;28;20962;-77
2021/04/02 03:10:42;;;;;;;8.55;6.43;;;;;;;12.83;49.01;98134.25;5090138;28;20236;-77
2021/04/02 03:13:09;;;;;;;8.55;6.70;;;;;;;12.84;48.47;98132.47;5087994;28;20289;-82
2021/04/02 03:15:36;;;;;;;9.18;6.72;;;;;;;12.70;49.30;98123.53;5090215;28;20233;-77
2021/04/02 03:18:05;;;;;;;6.60;6.00;;;;;;;12.70;48.86;98127.88;5087043;28;20243;-77
2021/04/02 03:20:34;;;;;;;7.32;6.53;;;;;;;12.72;48.79;98126.06;5089004;28;20243;-80
2021/04/02 03:23:01;;;;;;;8.57;6.35;;;;;;;12.71;49.29;98125.19;5086473;28;20232;-77
2021/04/02 03:25:28;;;;;;;7.05;5.93;;;;;;;12.67;48.95;98122.81;5089093;28;20244;-77
2021/04/02 03:27:55;;;;;;;9.70;6.32;;;;;;;12.59;48.95;98135.41;5090273;28;20635;-80
2021/04/02 03:30:24;;;;;;;8.35;6.00;;;;;;;12.51;48.75;98128.75;5087195;28;20312;-77
2021/04/02 03:32:52;;;;;;;8.75;6.30;;;;;;;12.50;48.49;98127.06;5088720;28;20239;-77
2021/04/02 03:35:19;;;;;;;7.07;5.45;;;;;;;12.50;48.37;98126.25;5089476;28;20212;-78
2021/04/02 03:37:47;;;;;;;8.52;6.30;;;;;;;12.53;48.55;98132.19;5090700;28;20227;-77
2021/04/02 03:40:15;;;;;;;6.55;5.82;;;;;;;12.55;48.83;98129.47;5086320;28;20227;-78
2021/04/02 03:42:42;;;;;;;8.35;5.53;;;;;;;12.57;48.41;98137.25;5088783;28;20200;-78
2021/04/02 03:45:11;;;;;;;7.90;5.75;;;;;;;12.52;48.13;98143.56;5089596;28;20219;-77
2021/04/02 03:47:39;;;;;;;9.02;6.32;;;;;;;12.50;48.22;98140.16;5089069;28;20235;-77
2021/04/02 03:50:07;;;;;;;6.72;5.18;;;;;;;12.48;48.76;98139.38;5088745;28;20215;-79
2021/04/02 03:52:35;;;;;;;8.10;6.57;;;;;;;12.50;48.45;98142.78;5084153;28;20797;-77
2021/04/02 03:55:02;;;;;;;6.53;5.25;;;;;;;12.46;48.09;98136.00;5088301;28;21024;-77
2021/04/02 03:57:29;;;;;;;6.93;5.43;;;;;;;12.40;49.21;98146.72;5088743;28;20849;-78
2021/04/02 03:59:58;;;;;;;6.38;5.60;;;;;;;12.44;48.35;98150.91;5090309;28;20274;-77
2021/04/02 04:02:24;;;;;;;6.82;5.38;;;;;;;12.44;48.53;98157.91;5088493;27;20229;-77
2021/04/02 04:04:52;;;;;;;8.60;5.93;;;;;;;12.39;48.83;98149.41;5089618;28;20270;-77
2021/04/02 04:07:18;;;;;;;6.40;5.43;;;;;;;12.39;48.22;98159.88;5086430;28;20262;-78
2021/04/02 04:09:44;;;;;;;6.22;5.07;;;;;;;12.29;48.88;98154.22;5088582;28;20250;-77
2021/04/02 04:12:13;;;;;;;6.57;5.28;;;;;;;12.34;48.63;98155.69;5088005;28;20240;-77
2021/04/02 04:14:40;;;;;;;5.53;5.00;;;;;;;12.38;48.73;98168.66;5089639;28;20224;-78
2021/04/02 04:17:07;;;;;;;6.05;5.07;;;;;;;12.32;48.36;98175.00;5085066;28;20236;-77
2021/04/02 04:19:34;;;;;;;5.35;4.82;;;;;;;12.35;48.93;98172.22;5086977;28;20741;-77
2021/04/02 04:22:02;;;;;;;5.95;4.93;;;;;;;12.38;48.20;98173.88;5086041;28;20232;-77
2021/04/02 04:24:29;;;;;;;5.47;4.63;;;;;;;12.35;47.93;98167.00;5086830;28;20605;-77
2021/04/02 04:26:56;;;;;;;5.35;4.85;;;;;;;12.32;48.59;98164.56;5089039;28;20249;-77
2021/04/02 04:29:24;;;;;;;5.65;4.93;;;;;;;12.30;48.19;98171.63;5091069;28;20212;-77
2021/04/02 04:31:51;;;;;;;4.90;4.35;;;;;;;12.32;47.98;98175.84;5089807;27;20240;-77
2021/04/02 04:34:18;;;;;;;5.00;4.50;;;;;;;12.34;47.90;98170.56;5088336;28;20290;-77
2021/04/02 04:36:45;;;;;;;6.38;4.38;;;;;;;12.38;47.92;98174.72;5087624;28;20238;-77
2021/04/02 04:39:12;;;;;;;5.25;4.40;;;;;;;12.33;48.13;98174.94;5088318;28;20747;-77
2021/04/02 04:41:40;;;;;;;4.38;3.97;;;;;;;12.33;48.26;98177.56;5088382;28;20237;-77
2021/04/02 04:44:07;;;;;;;5.22;4.28;;;;;;;12.31;47.60;98175.91;5086313;28;20728;-77
2021/04/02 04:46:33;;;;;;;4.45;3.75;;;;;;;12.26;47.48;98177.88;5088481;28;20266;-77
2021/04/02 04:48:59;;;;;;;3.75;3.28;;;;;;;12.22;48.30;98184.19;5087762;28;20728;-77
2021/04/02 04:51:29;;;;;;;6.90;3.80;;;;;;;12.15;48.00;98189.69;5082097;28;20251;-78
2021/04/02 04:53:56;;;;;;;3.83;3.53;;;;;;;12.19;48.03;98181.72;5088947;28;20228;-78
2021/04/02 04:56:25;;;;;;;4.75;3.58;;;;;;;12.20;48.59;98186.00;5086795;28;20240;-77
2021/04/02 04:58:51;;;;;;;4.32;3.88;;;;;;;12.21;48.56;98177.25;5087432;28;20236;-77
2021/04/02 05:01:18;;;;;;;3.90;3.60;;;;;;;12.23;47.94;98178.88;5081455;28;20259;-77
2021/04/02 05:03:45;;;;;;;4.18;3.47;;;;;;;12.26;48.80;98185.72;5081059;27;20205;-77
2021/04/02 05:06:12;;;;;;;3.75;3.33;;;;;;;12.27;48.48;98190.06;5089634;28;21001;-78
2021/04/02 05:08:41;;;;;;;4.22;3.60;;;;;;;12.27;48.40;98187.44;5089416;28;20386;-77
2021/04/02 05:11:08;;;;;;;4.32;3.05;;;;;;;12.27;48.54;98190.06;5089179;28;20227;-77
2021/04/02 05:13:36;;;;;;;3.45;3.15;;;;;;;12.28;48.94;98178.69;5088496;28;20232;-78
2021/04/02 05:16:03;;;;;;;3.50;3.20;;;;;;;12.24;48.80;98190.19;5090027;28;20745;-77
2021/04/02 05:18:29;;;;;;;3.47;3.17;;;;;;;12.27;48.83;98182.22;5090543;28;20245;-78
2021/04/02 05:20:55;;;;;;;3.60;3.22;;;;;;;12.33;48.45;98189.78;5087974;28;20236;-77
2021/04/02 05:23:22;;;;;;;4.20;3.15;;;;;;;12.32;47.93;98190.72;5088754;28;20208;-80
2021/04/02 05:25:48;;;;;;;3.60;3.22;;;;;;;12.34;48.20;98183.63;5087750;28;20270;-77
2021/04/02 05:28:14;;;;;;;3.50;3.20;;;;;;;12.35;48.03;98195.78;5086344;28;20232;-78
2021/04/02 05:30:41;;;;;;;3.50;3.20;;;;;;;12.36;47.49;98197.50;5088959;28;20240;-77
2021/04/02 05:33:07;;;;;;;4.80;3.30;;;;;;;12.39;47.71;98201.72;5086812;28;20243;-78
2021/04/02 05:35:34;;;;;;;4.80;3.70;;;;;;;12.37;47.43;98204.44;5090347;28;20232;-77
2021/04/02 05:38:00;;;;;;;3.92;2.92;;;;;;;12.37;48.36;98199.19;5087996;28;20411;-77
2021/04/02 05:40:28;;;;;;;3.45;3.15;;;;;;;12.38;47.63;98198.25;5088666;28;20239;-78
2021/04/02 05:42:58;;;;;;;3.92;3.53;;;;;;;12.42;48.18;98199.81;5090412;28;20212;-77
2021/04/02 05:45:24;;;;;;;3.65;3.35;;;;;;;12.34;47.59;98199.31;5090968;28;20216;-77
2021/04/02 05:47:53;;;;;;;3.97;3.60;;;;;;;12.27;47.37;98208.38;5087844;28;20293;-77
2021/04/02 05:50:20;;;;;;;3.38;3.08;;;;;;;12.25;48.50;98215.44;5088674;28;20288;-77
2021/04/02 05:52:49;;;;;;;3.70;3.20;;;;;;;12.15;48.39;98209.78;5087152;28;20238;-80
2021/04/02 05:55:16;;;;;;;3.95;3.50;;;;;;;12.09;48.84;98203.03;5089018;28;20213;-77
2021/04/02 05:57:43;;;;;;;3.97;3.58;;;;;;;12.05;48.23;98205.84;5090404;28;20243;-77
2021/04/02 06:00:10;;;;;;;5.30;3.30;;;;;;;12.04;48.54;98199.78;5089191;28;20265;-79
2021/04/02 06:02:36;;;;;;;4.13;3.45;;;;;;;12.06;48.42;98212.78;5090650;28;20208;-77
2021/04/02 06:05:03;;;;;;;4.10;3.70;;;;;;;12.05;47.76;98213.69;5087284;28;20240;-80
2021/04/02 06:07:30;;;;;;;3.30;3.00;;;;;;;12.03;48.10;98215.53;5088208;28;20232;-77
2021/04/02 06:09:56;;;;;;;3.90;3.50;;;;;;;12.01;48.66;98212.97;5087747;28;21029;-77
2021/04/02 06:12:24;;;;;;;3.58;3.28;;;;;;;11.95;48.69;98218.47;5088465;28;20324;-77
2021/04/02 06:14:50;;;;;;;4.00;3.47;;;;;;;11.97;48.33;98223.66;5084912;28;20216;-76
2021/04/02 06:17:16;;;;;;;3.92;3.40;;;;;;;11.99;47.98;98220.03;5088895;28;20239;-76
2021/04/02 06:19:42;;;;;;;3.88;3.28;;;;;;;11.98;47.94;98218.31;5085956;28;20216;-76
2021/04/02 06:22:10;;;;;;;3.78;3.47;;;;;;;11.92;48.40;98221.22;5086664;28;20813;-76
2021/04/02 06:24:38;;;;;;;4.15;3.25;;;;;;;11.92;48.67;98221.22;5088032;28;20212;-76
2021/04/02 06:27:06;;;;;;;3.75;3.45;;;;;;;11.95;48.03;98223.72;5087365;28;20816;-77
2021/04/02 06:29:40;;;;;;;3.75;3.35;;;;;;;11.95;48.99;98234.16;5088516;28;20214;-76
2021/04/02 06:32:08;;;;;;;3.72;3.20;;;;;;;11.89;48.59;98229.16;5086795;28;20244;-77
2021/04/02 06:34:34;;;;;;;3.92;3.55;;;;;;;11.84;48.43;98237.19;5087847;28;20235;-76
2021/04/02 06:37:01;;;;;;;3.75;3.45;;;;;;;11.82;48.19;98232.94;5088849;28;20242;-76
2021/04/02 06:39:36;;;;;;;3.70;3.20;;;;;;;11.84;48.45;98233.75;5088446;28;20212;-76
2021/04/02 06:42:03;;;;;;;5.07;3.67;;;;;;;11.89;48.78;98239.59;5088234;28;20239;-77
2021/04/02 06:44:30;;;;;;;4.20;3.80;;;;;;;11.92;48.63;98239.50;5088155;28;20282;-76
2021/04/02 06:46:58;;;;;;;3.42;3.03;;;;;;;11.97;49.03;98242.78;5086885;28;20240;-76
2021/04/02 06:49:24;;;;;;;4.70;3.92;;;;;;;11.97;48.44;98236.72;5086905;28;20221;-77
2021/04/02 06:51:52;;;;;;;4.82;3.80;;;;;;;11.94;48.43;98237.69;5087548;28;20266;-76
2021/04/02 06:54:21;;;;;;;4.05;3.58;;;;;;;11.96;48.81;98243.69;5088094;28;20228;-77
2021/04/02 06:56:58;;;;;;;4.88;3.78;;;;;;;11.98;48.65;98239.22;5088520;28;20282;-77
2021/04/02 06:59:25;;;;;;;4.45;3.92;;;;;;;12.00;48.18;98245.25;5085204;28;20335;-77
2021/04/02 07:01:55;;;;;;;5.45;4.22;;;;;;;12.06;48.41;98242.38;5087945;28;20827;-77
2021/04/02 07:04:24;;;;;;;4.50;3.90;;;;;;;12.13;48.52;98253.41;5086320;28;20694;-77
2021/04/02 07:06:51;;;;;;;4.65;3.92;;;;;;;12.16;48.56;98245.44;5087566;28;20251;-76
2021/04/02 07:09:20;;;;;;;4.85;4.35;;;;;;;12.11;48.75;98250.00;5089160;28;20212;-77
2021/04/02 07:11:49;;;;;;;6.20;4.15;;;;;;;12.11;48.27;98245.66;5087353;28;20289;-77
2021/04/02 07:14:16;;;;;;;5.18;4.03;;;;;;;12.14;48.36;98249.91;5085038;28;20239;-77
2021/04/02 07:16:43;;;;;;;4.72;3.97;;;;;;;12.13;48.54;98251.66;5094033;28;20236;-76
2021/04/02 07:19:09;;;;;;;5.00;4.13;;;;;;;12.19;48.61;98253.16;5093372;28;20220;-77
2021/04/02 07:21:37;;;;;;;4.80;4.18;;;;;;;12.15;48.15;98249.84;5092363;28;20622;-76
2021/04/02 07:24:04;;;;;;;4.68;4.03;;;;;;;12.15;48.31;98252.44;5090783;28;20221;-77
2021/04/02 07:26:31;;;;;;;5.72;4.50;;;;;;;12.20;48.23;98246.16;5088470;28;20244;-77
2021/04/02 07:28:59;;;;;;;5.20;4.40;;;;;;;12.25;49.13;98250.28;5090562;28;20745;-76
2021/04/02 07:31:25;;;;;;;4.90;4.38;;;;;;;12.29;48.42;98256.22;5090849;28;20574;-76
2021/04/02 07:33:53;;;;;;;5.00;4.43;;;;;;;12.31;49.18;98262.22;5090191;28;20247;-77
2021/04/02 07:36:19;;;;;;;5.13;4.40;;;;;;;12.34;48.70;98264.72;5088255;28;20240;-77
2021/04/02 07:38:48;;;;;;;4.45;4.05;;;;;;;12.38;48.49;98263.66;5089947;28;20264;-77
2021/04/02 07:41:15;;;;;;;4.88;4.32;;;;;;;12.35;49.08;98266.41;5087602;28;20243;-76
2021/04/02 07:43:49;;;;;;;4.88;4.22;;;;;;;12.30;49.17;98260.56;5091774;28;20213;-77
2021/04/02 07:46:21;;;;;;;4.80;4.30;;;;;;;12.35;49.07;98258.56;5091445;28;20364;-77
2021/04/02 07:48:50;;;;;;;5.25;3.92;;;;;;;12.41;48.93;98263.53;5091887;28;20237;-77
2021/04/02 07:51:16;;;;;;;4.45;4.00;;;;;;;12.47;48.53;98259.78;5087813;28;20242;-77
2021/04/02 07:53:45;;;;;;;5.22;4.40;;;;;;;12.57;48.43;98260.22;5092417;28;20782;-76
2021/04/02 07:56:13;;;;;;;5.00;4.13;;;;;;;12.65;47.90;98255.50;5090867;28;20225;-77
2021/04/02 07:58:41;;;;;;;4.78;4.25;;;;;;;12.70;48.18;98253.50;5089952;28;20324;-77
2021/04/02 08:01:07;;;;;;;4.05;3.63;;;;;;;12.56;48.31;98262.00;5090787;28;20235;-76
2021/04/02 08:03:34;;;;;;;4.88;4.38;;;;;;;12.47;48.44;98265.88;5089411;28;20212;-76
2021/04/02 08:06:03;;;;;;;6.72;4.43;;;;;;;12.54;48.77;98269.91;5087938;27;20229;-77
2021/04/02 08:08:39;;;;;;;4.95;4.45;;;;;;;12.64;48.41;98264.25;5093047;27;20231;-76
2021/04/02 08:11:08;;;;;;;6.43;4.07;;;;;;;12.64;48.27;98269.50;5091278;27;20247;-76
2021/04/02 08:14:02;;;;;;;4.28;3.80;;;;;;;12.61;47.97;98272.25;5089814;28;20236;-77
2021/04/02 08:16:40;;;;;;;4.38;3.95;;;;;;;12.62;47.95;98266.09;5044532;28;20236;-77
2021/04/02 08:19:09;;;;;;;4.28;3.83;;;;;;;12.63;48.14;98268.66;5087332;28;20654;-76
2021/04/02 08:21:36;;;;;;;4.13;3.63;;;;;;;12.66;48.71;98263.28;5089313;28;20234;-77
2021/04/02 08:24:03;;;;;;;4.15;3.42;;;;;;;12.70;47.95;98258.75;5087615;28;20701;-77
2021/04/02 08:26:31;;;;;;;3.90;3.50;;;;;;;12.66;48.54;98262.44;5087541;28;20236;-77
2021/04/02 08:28:57;;;;;;;5.50;3.72;;;;;;;12.48;48.77;98259.72;5087430;28;20232;-76
2021/04/02 08:31:23;;;;;;;4.25;3.42;;;;;;;12.39;48.72;98260.13;5089155;27;20239;-79
2021/04/02 08:33:52;;;;;;;4.60;3.08;;;;;;;12.47;49.02;98260.63;5085293;28;20243;-77
2021/04/02 08:36:19;;;;;;;3.95;3.50;;;;;;;12.50;48.59;98268.34;5086280;28;20233;-77
2021/04/02 08:38:47;;;;;;;4.25;3.53;;;;;;;12.43;49.21;98266.94;5089002;28;20248;-77
2021/04/02 08:41:17;;;;;;;5.10;3.33;;;;;;;12.38;49.66;98258.44;5089256;28;20240;-78
2021/04/02 08:43:43;;;;;;;4.40;3.58;;;;;;;12.47;49.71;98267.66;5085864;28;20332;-78
2021/04/02 08:46:09;;;;;;;4.35;3.85;;;;;;;12.51;48.76;98264.81;5090715;28;20756;-78
2021/04/02 08:48:36;;;;;;;4.95;3.75;;;;;;;12.54;48.70;98259.44;5088871;28;20236;-78
2021/04/02 08:51:02;;;;;;;3.78;3.38;;;;;;;12.64;48.97;98269.50;5088742;28;20864;-77
2021/04/02 08:53:40;;;;;;;4.72;4.18;;;;;;;12.65;48.25;98272.06;5089241;28;20313;-78
2021/04/02 08:56:07;;;;;;;6.15;4.75;;;;;;;12.60;48.00;98263.56;5089398;28;20730;-78
2021/04/02 08:58:34;;;;;;;5.65;4.78;;;;;;;12.49;48.09;98266.66;5090602;28;20228;-77
2021/04/02 09:01:01;;;;;;;5.65;4.65;;;;;;;12.43;49.03;98268.69;5085344;28;20338;-78
2021/04/02 09:03:27;;;;;;;6.78;4.90;;;;;;;12.48;47.66;98264.97;5088024;28;20597;-76
2021/04/02 09:05:53;;;;;;;5.63;4.60;;;;;;;12.50;48.06;98265.75;5085831;28;20228;-79
2021/04/02 09:08:20;;;;;;;5.60;5.00;;;;;;;12.52;48.55;98256.06;5090025;28;20310;-76
2021/04/02 09:10:47;;;;;;;5.72;5.05;;;;;;;12.46;48.24;98261.56;5086447;28;21002;-80
2021/04/02 09:13:13;;;;;;;6.55;5.45;;;;;;;12.43;48.30;98259.09;5087006;28;20660;-80
2021/04/02 09:15:40;;;;;;;7.40;6.45;;;;;;;12.39;48.09;98257.53;5087397;28;20600;-79
2021/04/02 09:18:28;;;;;;;6.82;6.10;;;;;;;12.04;48.38;98249.44;5087014;28;20232;-80
2021/04/02 09:20:55;;;;;;;7.20;6.30;;;;;;;11.86;48.97;98255.44;5088102;28;20841;-80
2021/04/02 09:23:22;;;;;;;7.47;6.65;;;;;;;11.66;49.41;98257.09;5087260;28;20302;-79
2021/04/02 09:25:49;;;;;;;6.85;6.15;;;;;;;11.58;50.09;98256.56;5088069;28;20229;-79
2021/04/02 09:28:20;;;;;;;8.68;7.30;;;;;;;11.44;50.19;98253.66;5089769;28;20281;-79
2021/04/02 09:30:46;;;;;;;7.00;5.82;;;;;;;11.48;50.14;98256.09;5090167;27;20867;-78
2021/04/02 09:33:17;;;;;;;8.18;6.68;;;;;;;11.62;50.87;98252.91;5090706;28;20236;-79
2021/04/02 09:35:43;;;;;;;8.23;7.25;;;;;;;11.81;50.25;98257.38;5085195;28;20741;-79
2021/04/02 09:38:10;;;;;;;7.78;6.60;;;;;;;11.97;50.16;98258.47;5088482;28;20229;-76
2021/04/02 09:40:36;;;;;;;7.53;6.50;;;;;;;12.12;49.48;98249.13;5088136;28;20269;-80
2021/04/02 09:43:04;;;;;;;7.50;6.70;;;;;;;12.14;49.33;98249.91;5088340;28;20200;-77
2021/04/02 09:45:30;;;;;;;8.20;6.93;;;;;;;12.10;49.01;98250.94;5090126;28;20232;-82
2021/04/02 09:47:58;;;;;;;7.50;6.50;;;;;;;12.05;49.30;98256.34;5089537;28;20572;-81
2021/04/02 09:50:25;;;;;;;8.40;6.72;;;;;;;11.89;49.37;98253.53;5087674;28;20232;-80
2021/04/02 09:52:52;;;;;;;7.32;5.80;;;;;;;11.86;49.59;98250.19;5088249;28;20256;-80
2021/04/02 09:55:18;;;;;;;7.82;6.10;;;;;;;12.00;49.89;98242.63;5089747;28;20228;-77
2021/04/02 09:57:44;;;;;;;7.03;6.10;;;;;;;12.14;49.58;98250.75;5089520;28;20237;-79
2021/04/02 10:00:13;;;;;;;7.10;5.78;;;;;;;12.24;48.86;98245.09;5086304;28;20212;-75
2021/04/02 10:02:39;;;;;;;6.78;5.13;;;;;;;12.30;49.22;98239.63;5090618;28;20212;-77
2021/04/02 10:05:07;;;;;;;7.38;5.53;;;;;;;12.09;49.36;98242.25;5088877;28;20983;-79
2021/04/02 10:07:33;;;;;;;6.22;5.50;;;;;;;11.99;49.31;98234.88;5085170;28;20299;-81
2021/04/02 10:09:59;;;;;;;5.32;4.80;;;;;;;12.03;49.65;98241.66;5088152;28;20211;-81
2021/04/02 10:12:26;;;;;;;4.30;3.65;;;;;;;12.13;49.57;98238.59;5088480;28;20236;-81
2021/04/02 10:14:52;;;;;;;3.92;3.13;;;;;;;12.14;49.98;98242.88;5088333;28;20248;-80
2021/04/02 10:17:19;;;;;;;3.75;2.80;;;;;;;11.93;49.82;98246.44;5086761;28;20240;-82
2021/04/02 10:19:47;;;;;;;3.20;2.70;;;;;;;11.79;49.97;98238.31;5087452;28;20235;-80
2021/04/02 10:22:13;;;;;;;3.83;2.65;;;;;;;11.74;49.81;98243.72;5086732;28;20293;-80
2021/04/02 10:24:39;;;;;;;2.47;2.15;;;;;;;11.75;50.94;98241.03;5088677;28;20208;-80
2021/04/02 10:27:06;;;;;;;4.50;2.85;;;;;;;11.84;50.11;98252.03;5088612;28;20247;-85
2021/04/02 10:29:32;;;;;;;3.80;2.60;;;;;;;11.89;50.59;98252.66;5089354;28;20212;-83
2021/04/02 10:31:58;;;;;;;3.17;2.88;;;;;;;11.87;50.95;98246.66;5086836;28;20236;-87
2021/04/02 10:34:25;;;;;;;3.53;3.00;;;;;;;11.61;50.69;98242.53;5088602;28;20228;-82
2021/04/02 10:36:51;;;;;;;4.18;2.83;;;;;;;11.44;51.50;98248.44;5087602;28;20264;-82
2021/04/02 10:39:18;;;;;;;3.55;2.80;;;;;;;11.27;52.13;98243.91;5088305;28;20223;-83
2021/04/02 10:41:44;;;;;;;3.47;3.10;;;;;;;11.31;52.49;98248.09;5086295;28;20545;-79
2021/04/02 10:44:10;;;;;;;3.13;2.78;;;;;;;11.23;52.38;98243.19;5086274;28;20235;-77
2021/04/02 10:46:36;;;;;;;3.38;2.58;;;;;;;11.12;52.27;98240.13;5085488;28;20293;-77
2021/04/02 10:49:02;;;;;;;3.42;2.40;;;;;;;11.04;52.70;98239.59;5088988;28;20723;-77
2021/04/02 10:51:30;;;;;;;3.55;2.60;;;;;;;11.00;52.97;98242.31;5087002;28;20243;-78
2021/04/02 10:54:01;;;;;;;3.53;2.25;;;;;;;11.06;52.91;98242.97;5091679;28;20327;-79
2021/04/02 10:56:27;;;;;;;4.05;2.72;;;;;;;11.06;52.51;98248.19;5091579;28;20293;-80
2021/04/02 10:58:53;;;;;;;2.78;2.25;;;;;;;11.15;52.78;98245.22;5087889;28;20239;-77
2021/04/02 11:01:19;;;;;;;4.38;2.55;;;;;;;11.16;52.44;98244.34;5088463;28;20239;-78
2021/04/02 11:03:46;;;;;;;3.30;2.45;;;;;;;11.28;52.79;98249.03;5087612;28;20200;-78
2021/04/02 11:06:12;;;;;;;3.03;2.28;;;;;;;11.32;52.74;98239.31;5090875;28;20256;-78
2021/04/02 11:08:39;;;;;;;2.15;1.83;;;;;;;11.31;52.69;98235.88;5091480;28;20224;-79
2021/04/02 11:11:05;;;;;;;2.22;1.80;;;;;;;11.40;52.51;98241.66;5089673;28;20239;-78
2021/04/02 11:14:09;;;;;;;1.75;1.48;;;;;;;11.52;51.94;98242.00;5105492;27;20502;-79
2021/04/02 11:16:35;;;;;;;2.03;1.83;;;;;;;11.47;51.78;98243.94;5084469;27;20237;-78
2021/04/02 11:19:01;;;;;;;2.17;1.42;;;;;;;11.55;52.34;98241.03;5079165;28;20236;-76
2021/04/02 11:21:27;;;;;;;1.83;1.60;;;;;;;11.62;51.77;98226.78;5082369;28;20995;-76
2021/04/02 11:23:53;;;;;;;2.20;1.58;;;;;;;11.80;51.45;98225.19;5081013;28;20200;-78
2021/04/02 11:26:21;;;;;;;3.13;1.67;;;;;;;11.94;50.86;98219.38;5083692;28;20237;-77
2021/04/02 11:28:47;;;;;;;6.13;1.75;;;;;;;12.07;50.27;98223.16;5083193;28;20351;-76
2021/04/02 11:31:14;;;;;;;1.40;1.30;;;;;;;12.18;50.07;98222.69;5083930;28;20262;-77